createdAt,value
2022-12-31T00:00:17.397Z,91.64
2022-12-31T00:01:20.556Z,91.93
2022-12-31T00:02:22.308Z,92.69
2022-12-31T00:03:24.005Z,92.07
2022-12-31T00:04:25.502Z,92.77
2022-12-31T00:05:26.993Z,92.74
2022-12-31T00:06:33.155Z,92.20
2022-12-31T00:08:36.338Z,92.27
2022-12-31T00:09:37.751Z,92.06
2022-12-31T00:10:43.329Z,91.82
2022-12-31T00:11:44.894Z,91.52
2022-12-31T00:12:46.331Z,91.61
2022-12-31T00:13:48.337Z,91.39
2022-12-31T00:14:49.660Z,91.82
2022-12-31T00:15:51.083Z,91.83
2022-12-31T00:16:52.538Z,92.01
2022-12-31T00:17:53.945Z,91.69
2022-12-31T00:18:59.164Z,91.40
2022-12-31T00:20:00.589Z,91.54
2022-12-31T00:21:09.789Z,90.93
2022-12-31T00:22:11.209Z,91.89
2022-12-31T00:23:12.684Z,92.39
2022-12-31T00:24:14.089Z,91.46
2022-12-31T00:25:15.505Z,92.17
2022-12-31T00:26:19.335Z,90.59
2022-12-31T00:27:22.274Z,90.91
2022-12-31T00:28:23.709Z,90.98
2022-12-31T00:29:25.189Z,91.30
2022-12-31T00:30:26.605Z,91.23
2022-12-31T00:31:31.175Z,90.85
2022-12-31T00:32:32.614Z,91.34
2022-12-31T00:33:36.072Z,90.99
2022-12-31T00:34:37.517Z,90.46
2022-12-31T00:35:38.897Z,89.98
2022-12-31T00:36:42.470Z,90.49
2022-12-31T00:37:43.899Z,90.29
2022-12-31T00:38:47.103Z,91.21
2022-12-31T00:39:48.505Z,91.36
2022-12-31T00:40:49.904Z,90.41
2022-12-31T00:41:54.371Z,91.39
2022-12-31T00:42:55.765Z,92.17
2022-12-31T00:43:57.521Z,91.55
2022-12-31T00:44:58.955Z,92.47
2022-12-31T00:46:01.265Z,91.63
2022-12-31T00:47:02.677Z,91.39
2022-12-31T00:48:04.319Z,91.50
2022-12-31T00:49:06.001Z,91.44
2022-12-31T00:50:07.810Z,92.32
2022-12-31T00:51:12.140Z,92.57
2022-12-31T00:52:15.773Z,92.49
2022-12-31T00:53:17.429Z,92.11
2022-12-31T00:54:18.855Z,92.99
2022-12-31T00:55:20.245Z,92.78
2022-12-31T00:56:24.235Z,92.45
2022-12-31T00:57:25.693Z,92.76
2022-12-31T00:58:27.573Z,92.41
2022-12-31T00:59:29.037Z,92.44
2022-12-31T01:00:30.510Z,92.20
2022-12-31T01:01:38.227Z,92.47
2022-12-31T01:02:42.416Z,92.08
2022-12-31T01:03:45.073Z,92.67
2022-12-31T01:04:46.522Z,93.16
2022-12-31T01:05:47.960Z,92.24
2022-12-31T01:06:49.438Z,92.79
2022-12-31T01:07:50.847Z,93.18
2022-12-31T01:08:55.076Z,93.11
2022-12-31T01:09:56.491Z,92.92
2022-12-31T01:11:17.451Z,93.87
2022-12-31T01:12:18.880Z,93.37
2022-12-31T01:13:20.327Z,93.55
2022-12-31T01:14:21.815Z,92.41
2022-12-31T01:15:23.235Z,92.46
2022-12-31T01:16:27.289Z,92.48
2022-12-31T01:17:28.727Z,92.05
2022-12-31T01:18:30.115Z,91.20
2022-12-31T01:19:31.547Z,90.77
2022-12-31T01:20:40.706Z,89.92
2022-12-31T01:21:43.786Z,90.23
2022-12-31T01:22:45.185Z,91.15
2022-12-31T01:23:46.779Z,89.64
2022-12-31T01:24:48.207Z,90.07
2022-12-31T01:25:49.645Z,90.29
2022-12-31T01:26:51.716Z,90.50
2022-12-31T01:27:53.329Z,90.79
2022-12-31T01:28:54.820Z,90.63
2022-12-31T01:29:56.261Z,90.68
2022-12-31T01:30:57.921Z,91.07
2022-12-31T01:31:59.424Z,90.68
2022-12-31T01:33:00.814Z,89.68
2022-12-31T01:34:02.967Z,89.64
2022-12-31T01:35:04.767Z,89.62
2022-12-31T01:36:10.200Z,89.26
2022-12-31T01:37:11.578Z,89.88
2022-12-31T01:38:12.976Z,89.91
2022-12-31T01:39:14.438Z,89.53
2022-12-31T01:40:15.947Z,90.03
2022-12-31T01:41:20.615Z,89.72
2022-12-31T01:42:22.032Z,90.28
2022-12-31T01:43:23.481Z,89.36
2022-12-31T01:44:24.874Z,89.06
2022-12-31T01:45:26.538Z,88.98
2022-12-31T01:46:51.421Z,89.14
2022-12-31T01:47:57.175Z,88.81
2022-12-31T01:49:03.319Z,88.95
2022-12-31T01:50:10.271Z,89.30
2022-12-31T01:51:11.706Z,89.35
2022-12-31T01:52:20.064Z,88.60
2022-12-31T01:53:22.044Z,88.96
2022-12-31T01:54:25.550Z,88.20
2022-12-31T01:55:43.372Z,87.71
2022-12-31T01:56:46.656Z,87.84
2022-12-31T01:57:53.083Z,88.21
2022-12-31T01:58:56.680Z,88.77
2022-12-31T02:00:00.447Z,88.74
2022-12-31T02:01:02.585Z,89.51
2022-12-31T02:02:05.450Z,89.59
2022-12-31T02:03:07.955Z,89.42
2022-12-31T02:04:12.051Z,90.09
2022-12-31T02:05:25.495Z,90.25
2022-12-31T02:06:36.376Z,90.91
2022-12-31T02:07:40.349Z,90.83
2022-12-31T02:08:42.411Z,90.72
2022-12-31T02:09:44.479Z,90.97
2022-12-31T02:10:45.901Z,91.67
2022-12-31T02:11:47.419Z,90.62
2022-12-31T02:12:49.129Z,91.97
2022-12-31T02:13:58.212Z,91.38
2022-12-31T02:15:00.283Z,91.68
2022-12-31T02:16:13.623Z,91.31
2022-12-31T02:17:41.776Z,91.29
2022-12-31T02:18:56.514Z,90.98
2022-12-31T02:20:24.381Z,91.50
2022-12-31T02:21:44.377Z,90.66
2022-12-31T02:23:01.073Z,91.04
2022-12-31T02:24:14.525Z,91.55
2022-12-31T02:25:40.989Z,90.57
2022-12-31T02:26:53.462Z,90.88
2022-12-31T02:28:31.843Z,91.02
2022-12-31T02:30:12.808Z,91.81
2022-12-31T02:31:50.077Z,92.24
2022-12-31T02:33:02.842Z,92.39
2022-12-31T02:34:31.433Z,91.93
2022-12-31T02:35:36.729Z,91.79
2022-12-31T02:36:42.308Z,92.32
2022-12-31T02:37:48.095Z,92.88
2022-12-31T02:38:50.008Z,92.24
2022-12-31T02:39:51.842Z,92.52
2022-12-31T02:40:54.570Z,92.81
2022-12-31T02:41:55.987Z,92.59
2022-12-31T02:42:57.424Z,92.71
2022-12-31T02:43:58.848Z,93.09
2022-12-31T02:45:00.286Z,93.69
2022-12-31T02:46:16.798Z,93.19
2022-12-31T02:48:01.210Z,93.47
2022-12-31T02:49:20.416Z,93.35
2022-12-31T02:50:30.753Z,93.83
2022-12-31T02:52:10.368Z,93.14
2022-12-31T02:53:34.971Z,93.87
2022-12-31T02:54:36.416Z,92.76
2022-12-31T02:56:03.179Z,93.10
2022-12-31T02:57:13.676Z,93.53
2022-12-31T02:58:45.698Z,93.79
2022-12-31T03:00:20.289Z,93.28
2022-12-31T03:01:49.213Z,93.67
2022-12-31T03:02:52.714Z,93.90
2022-12-31T03:04:14.167Z,93.41
2022-12-31T03:05:19.447Z,93.00
2022-12-31T03:06:20.902Z,93.16
2022-12-31T03:07:26.341Z,92.13
2022-12-31T03:08:27.759Z,92.02
2022-12-31T03:09:29.140Z,91.91
2022-12-31T03:10:30.611Z,91.82
2022-12-31T03:11:54.930Z,92.36
2022-12-31T03:12:56.369Z,91.99
2022-12-31T03:13:57.752Z,92.45
2022-12-31T03:14:59.178Z,92.13
2022-12-31T03:16:00.624Z,91.98
2022-12-31T03:17:02.081Z,91.81
2022-12-31T03:18:16.590Z,91.67
2022-12-31T03:19:36.577Z,92.16
2022-12-31T03:21:01.706Z,92.42
2022-12-31T03:22:22.064Z,91.82
2022-12-31T03:23:28.658Z,90.92
2022-12-31T03:24:48.551Z,91.21
2022-12-31T03:25:50.108Z,90.79
2022-12-31T03:26:51.509Z,90.90
2022-12-31T03:27:53.471Z,91.31
2022-12-31T03:28:54.810Z,90.81
2022-12-31T03:29:56.213Z,90.66
2022-12-31T03:31:00.469Z,90.73
2022-12-31T03:32:02.091Z,90.56
2022-12-31T03:33:05.027Z,91.18
2022-12-31T03:34:06.405Z,91.76
2022-12-31T03:35:08.677Z,91.84
2022-12-31T03:36:14.782Z,91.93
2022-12-31T03:37:16.239Z,91.36
2022-12-31T03:38:18.940Z,91.26
2022-12-31T03:39:20.344Z,92.25
2022-12-31T03:40:23.245Z,91.63
2022-12-31T03:41:24.704Z,91.57
2022-12-31T03:42:26.242Z,91.34
2022-12-31T03:43:27.790Z,91.77
2022-12-31T03:44:29.202Z,91.44
2022-12-31T03:45:30.773Z,90.61
2022-12-31T03:46:32.210Z,90.89
2022-12-31T03:47:33.633Z,91.18
2022-12-31T03:48:35.538Z,91.33
2022-12-31T03:49:36.981Z,91.00
2022-12-31T03:50:38.442Z,90.95
2022-12-31T03:51:39.863Z,91.06
2022-12-31T03:52:41.372Z,90.42
2022-12-31T03:53:42.778Z,90.32
2022-12-31T03:54:44.216Z,91.12
2022-12-31T03:55:45.722Z,90.10
2022-12-31T03:56:49.558Z,90.56
2022-12-31T03:57:51.574Z,90.60
2022-12-31T03:58:52.979Z,90.49
2022-12-31T03:59:54.545Z,90.53
2022-12-31T04:00:55.996Z,90.10
2022-12-31T04:01:57.714Z,89.95
2022-12-31T04:02:59.315Z,89.92
2022-12-31T04:04:00.776Z,89.89
2022-12-31T04:05:02.240Z,89.83
2022-12-31T04:06:03.693Z,90.14
2022-12-31T04:07:10.991Z,89.85
2022-12-31T04:08:18.331Z,90.18
2022-12-31T04:09:19.895Z,89.76
2022-12-31T04:10:21.378Z,90.26
2022-12-31T04:11:22.846Z,90.21
2022-12-31T04:12:27.438Z,90.65
2022-12-31T04:13:28.860Z,91.12
2022-12-31T04:14:30.286Z,90.45
2022-12-31T04:15:32.336Z,90.35
2022-12-31T04:16:33.760Z,90.13
2022-12-31T04:17:35.320Z,90.35
2022-12-31T04:18:36.776Z,91.15
2022-12-31T04:19:38.206Z,91.14
2022-12-31T04:20:39.594Z,90.44
2022-12-31T04:21:42.714Z,90.00
2022-12-31T04:22:45.831Z,90.54
2022-12-31T04:23:47.240Z,90.14
2022-12-31T04:24:48.702Z,90.45
2022-12-31T04:25:50.132Z,90.18
2022-12-31T04:26:53.642Z,90.19
2022-12-31T04:27:55.087Z,90.14
2022-12-31T04:28:56.831Z,90.19
2022-12-31T04:29:58.244Z,90.93
2022-12-31T04:31:01.730Z,90.33
2022-12-31T04:32:04.499Z,90.33
2022-12-31T04:33:05.964Z,90.15
2022-12-31T04:34:07.369Z,90.41
2022-12-31T04:35:09.568Z,90.47
2022-12-31T04:36:11.176Z,90.33
2022-12-31T04:37:12.611Z,89.46
2022-12-31T04:38:14.043Z,89.19
2022-12-31T04:39:18.192Z,89.32
2022-12-31T04:40:19.825Z,89.21
2022-12-31T04:41:21.341Z,89.22
2022-12-31T04:42:22.765Z,89.42
2022-12-31T04:43:24.219Z,88.99
2022-12-31T04:44:25.663Z,89.01
2022-12-31T04:45:27.050Z,89.22
2022-12-31T04:46:33.034Z,89.86
2022-12-31T04:47:34.574Z,89.45
2022-12-31T04:48:36.106Z,89.81
2022-12-31T04:49:37.502Z,90.43
2022-12-31T04:50:38.932Z,90.50
2022-12-31T04:51:40.492Z,90.56
2022-12-31T04:52:44.323Z,90.60
2022-12-31T04:53:46.276Z,90.34
2022-12-31T04:54:50.687Z,90.21
2022-12-31T04:55:55.299Z,89.71
2022-12-31T04:56:56.766Z,90.73
2022-12-31T04:57:58.214Z,89.59
2022-12-31T04:58:59.662Z,90.23
2022-12-31T05:00:01.083Z,90.25
2022-12-31T05:01:02.690Z,90.29
2022-12-31T05:02:04.294Z,90.64
2022-12-31T05:03:06.042Z,91.06
2022-12-31T05:04:07.543Z,90.67
2022-12-31T05:05:09.361Z,89.84
2022-12-31T05:06:16.641Z,90.20
2022-12-31T05:07:18.104Z,90.08
2022-12-31T05:08:20.403Z,90.10
2022-12-31T05:09:24.027Z,89.78
2022-12-31T05:10:25.511Z,89.69
2022-12-31T05:11:26.969Z,89.64
2022-12-31T05:12:28.515Z,90.04
2022-12-31T05:13:33.294Z,89.89
2022-12-31T05:14:35.217Z,89.60
2022-12-31T05:15:36.744Z,89.82
2022-12-31T05:16:38.192Z,89.86
2022-12-31T05:17:39.800Z,89.53
2022-12-31T05:18:41.213Z,89.39
2022-12-31T05:19:42.625Z,89.66
2022-12-31T05:20:46.164Z,89.20
2022-12-31T05:22:07.626Z,89.75
2022-12-31T05:23:09.372Z,89.28
2022-12-31T05:24:10.767Z,89.27
2022-12-31T05:25:14.887Z,89.60
2022-12-31T05:26:17.075Z,89.16
2022-12-31T05:27:18.495Z,89.82
2022-12-31T05:28:22.802Z,90.72
2022-12-31T05:29:24.232Z,92.20
2022-12-31T05:30:25.748Z,92.58
2022-12-31T05:31:27.522Z,93.11
2022-12-31T05:32:29.028Z,94.09
2022-12-31T05:33:30.502Z,94.01
2022-12-31T05:34:31.920Z,94.98
2022-12-31T05:35:33.500Z,95.49
2022-12-31T05:36:34.912Z,95.59
2022-12-31T05:37:38.437Z,95.76
2022-12-31T05:38:39.991Z,95.94
2022-12-31T05:39:41.404Z,96.71
2022-12-31T05:40:45.651Z,96.46
2022-12-31T05:41:47.107Z,96.31
2022-12-31T05:42:49.981Z,96.95
2022-12-31T05:43:51.446Z,97.31
2022-12-31T05:44:52.853Z,96.88
2022-12-31T05:45:54.344Z,96.78
2022-12-31T05:46:58.760Z,96.53
2022-12-31T05:48:00.474Z,96.98
2022-12-31T05:49:01.886Z,96.73
2022-12-31T05:50:03.706Z,96.52
2022-12-31T05:51:05.284Z,96.42
2022-12-31T05:52:06.832Z,96.41
2022-12-31T05:53:08.274Z,96.51
2022-12-31T05:54:09.752Z,96.17
2022-12-31T05:55:12.099Z,96.37
2022-12-31T05:56:17.777Z,96.34
2022-12-31T05:57:19.210Z,96.42
2022-12-31T05:58:20.648Z,95.74
2022-12-31T05:59:22.170Z,96.18
2022-12-31T06:00:26.767Z,95.85
2022-12-31T06:01:28.221Z,95.95
2022-12-31T06:02:35.411Z,96.18
2022-12-31T06:03:36.917Z,96.23
2022-12-31T06:04:38.319Z,96.28
2022-12-31T06:05:41.933Z,96.95
2022-12-31T06:06:43.423Z,97.13
2022-12-31T06:07:45.446Z,97.31
2022-12-31T06:08:50.038Z,97.17
2022-12-31T06:09:51.461Z,96.55
2022-12-31T06:10:52.876Z,97.18
2022-12-31T06:11:57.255Z,96.87
2022-12-31T06:12:58.684Z,96.76
2022-12-31T06:14:00.165Z,96.99
2022-12-31T06:15:01.628Z,96.95
2022-12-31T06:16:10.369Z,97.44
2022-12-31T06:17:11.875Z,96.30
2022-12-31T06:18:13.271Z,97.09
2022-12-31T06:19:14.830Z,96.40
2022-12-31T06:20:18.061Z,96.39
2022-12-31T06:21:22.880Z,96.17
2022-12-31T06:22:24.392Z,95.91
2022-12-31T06:23:25.857Z,96.18
2022-12-31T06:24:27.362Z,95.82
2022-12-31T06:25:28.782Z,95.95
2022-12-31T06:26:30.199Z,95.42
2022-12-31T06:27:31.610Z,94.59
2022-12-31T06:28:33.342Z,94.22
2022-12-31T06:29:34.806Z,94.18
2022-12-31T06:30:36.364Z,95.04
2022-12-31T06:31:37.846Z,93.39
2022-12-31T06:32:40.652Z,93.89
2022-12-31T06:33:46.863Z,93.24
2022-12-31T06:34:48.303Z,93.25
2022-12-31T06:35:55.858Z,92.20
2022-12-31T06:36:57.878Z,92.58
2022-12-31T06:37:59.216Z,92.70
2022-12-31T06:39:04.121Z,93.45
2022-12-31T06:40:06.295Z,92.63
2022-12-31T06:41:13.503Z,92.75
2022-12-31T06:42:14.925Z,91.59
2022-12-31T06:43:16.437Z,92.61
2022-12-31T06:44:17.927Z,92.86
2022-12-31T06:45:19.927Z,92.70
2022-12-31T06:46:21.386Z,92.24
2022-12-31T06:47:22.860Z,92.63
2022-12-31T06:48:27.179Z,92.04
2022-12-31T06:49:28.657Z,91.55
2022-12-31T06:50:30.087Z,91.24
2022-12-31T06:51:31.597Z,91.13
2022-12-31T06:52:33.650Z,89.78
2022-12-31T06:53:35.102Z,90.54
2022-12-31T06:54:36.840Z,90.46
2022-12-31T06:55:38.681Z,89.45
2022-12-31T06:56:40.656Z,89.57
2022-12-31T06:57:42.107Z,90.02
2022-12-31T06:58:44.616Z,89.03
2022-12-31T06:59:48.990Z,90.11
2022-12-31T07:01:12.856Z,89.61
2022-12-31T07:02:49.338Z,87.99
2022-12-31T07:04:14.359Z,89.01
2022-12-31T07:05:49.499Z,88.47
2022-12-31T07:07:20.161Z,89.29
2022-12-31T07:08:46.185Z,88.40
2022-12-31T07:09:53.667Z,87.71
2022-12-31T07:11:20.688Z,88.35
2022-12-31T07:12:53.647Z,87.38
2022-12-31T07:14:18.403Z,87.85
2022-12-31T07:15:36.940Z,87.09
2022-12-31T07:17:17.150Z,87.03
2022-12-31T07:18:59.040Z,87.97
2022-12-31T07:20:10.880Z,88.26
2022-12-31T07:21:20.987Z,87.98
2022-12-31T07:22:22.622Z,86.85
2022-12-31T07:23:24.762Z,87.06
2022-12-31T07:24:26.677Z,87.73
2022-12-31T07:25:28.558Z,87.27
2022-12-31T07:27:18.411Z,86.37
2022-12-31T07:28:46.125Z,86.33
2022-12-31T07:29:50.415Z,86.46
2022-12-31T07:31:01.600Z,85.97
2022-12-31T07:32:30.211Z,85.11
2022-12-31T07:33:46.743Z,86.45
2022-12-31T07:34:48.115Z,86.69
2022-12-31T07:36:08.322Z,86.10
2022-12-31T07:37:37.609Z,86.25
2022-12-31T07:39:05.656Z,86.32
2022-12-31T07:40:13.672Z,86.99
2022-12-31T07:41:17.978Z,86.71
2022-12-31T07:42:33.013Z,86.05
2022-12-31T07:44:00.665Z,86.29
2022-12-31T07:45:20.890Z,86.60
2022-12-31T07:46:28.544Z,86.90
2022-12-31T07:47:30.652Z,86.87
2022-12-31T07:48:32.122Z,87.39
2022-12-31T07:49:34.185Z,86.12
2022-12-31T07:50:35.909Z,87.36
2022-12-31T07:51:37.964Z,87.65
2022-12-31T07:52:39.967Z,86.36
2022-12-31T07:53:41.294Z,86.47
2022-12-31T07:54:42.876Z,86.04
2022-12-31T07:55:44.343Z,85.17
2022-12-31T07:56:46.768Z,85.11
2022-12-31T07:58:24.205Z,85.42
2022-12-31T07:59:52.099Z,84.83
2022-12-31T08:00:57.162Z,84.46
2022-12-31T08:02:30.816Z,84.24
2022-12-31T08:04:07.194Z,85.16
2022-12-31T08:05:26.929Z,83.17
2022-12-31T08:06:38.977Z,83.22
2022-12-31T08:07:55.666Z,83.99
2022-12-31T08:09:15.954Z,84.59
2022-12-31T08:10:43.430Z,84.73
2022-12-31T08:11:54.176Z,83.82
2022-12-31T08:13:02.202Z,83.56
2022-12-31T08:14:03.772Z,83.52
2022-12-31T08:15:14.138Z,84.50
2022-12-31T08:16:16.035Z,83.89
2022-12-31T08:17:18.419Z,83.91
2022-12-31T08:18:20.165Z,84.59
2022-12-31T08:19:25.623Z,83.86
2022-12-31T08:20:29.933Z,83.83
2022-12-31T08:21:46.251Z,83.67
2022-12-31T08:23:14.852Z,83.94
2022-12-31T08:24:35.710Z,84.01
2022-12-31T08:26:23.587Z,83.21
2022-12-31T08:27:55.649Z,83.24
2022-12-31T08:29:16.674Z,83.27
2022-12-31T08:30:21.244Z,83.12
2022-12-31T08:31:27.429Z,82.44
2022-12-31T08:32:37.610Z,81.07
2022-12-31T08:34:14.501Z,82.24
2022-12-31T08:35:22.139Z,83.69
2022-12-31T08:37:01.969Z,83.13
2022-12-31T08:38:17.939Z,82.28
2022-12-31T08:39:27.698Z,82.59
2022-12-31T08:40:42.156Z,82.86
2022-12-31T08:41:45.841Z,83.00
2022-12-31T08:43:13.377Z,82.26
2022-12-31T08:44:17.547Z,81.78
2022-12-31T08:45:43.237Z,80.34
2022-12-31T08:46:51.639Z,82.35
2022-12-31T08:48:22.478Z,82.13
2022-12-31T08:49:27.401Z,81.42
2022-12-31T08:50:29.447Z,81.43
2022-12-31T08:51:31.040Z,81.05
2022-12-31T08:52:32.712Z,81.48
2022-12-31T08:53:35.007Z,80.31
2022-12-31T08:54:36.706Z,82.11
2022-12-31T08:55:38.550Z,82.54
2022-12-31T08:56:50.446Z,81.93
2022-12-31T08:58:28.292Z,80.27
2022-12-31T08:59:44.660Z,79.95
2022-12-31T09:00:49.652Z,78.99
2022-12-31T09:01:54.380Z,79.76
2022-12-31T09:03:16.846Z,79.66
2022-12-31T09:04:46.437Z,79.45
2022-12-31T09:05:58.789Z,80.16
2022-12-31T09:07:03.272Z,79.93
2022-12-31T09:08:12.870Z,80.07
2022-12-31T09:09:25.108Z,80.61
2022-12-31T09:10:32.561Z,79.82
2022-12-31T09:11:50.417Z,79.65
2022-12-31T09:13:07.735Z,78.46
2022-12-31T09:14:15.631Z,80.07
2022-12-31T09:15:22.364Z,79.31
2022-12-31T09:16:54.336Z,79.19
2022-12-31T09:17:56.140Z,80.77
2022-12-31T09:18:57.658Z,80.24
2022-12-31T09:19:59.459Z,80.16
2022-12-31T09:21:01.090Z,79.32
2022-12-31T09:22:02.981Z,79.36
2022-12-31T09:23:05.405Z,79.83
2022-12-31T09:24:09.851Z,78.81
2022-12-31T09:25:17.346Z,78.72
2022-12-31T09:27:05.541Z,78.49
2022-12-31T09:28:13.948Z,77.27
2022-12-31T09:29:38.790Z,79.05
2022-12-31T09:30:44.124Z,78.57
2022-12-31T09:32:08.769Z,77.93
2022-12-31T09:33:33.059Z,77.67
2022-12-31T09:34:40.359Z,77.60
2022-12-31T09:35:55.395Z,77.27
2022-12-31T09:37:06.375Z,77.56
2022-12-31T09:38:13.526Z,77.88
2022-12-31T09:39:22.046Z,77.27
2022-12-31T09:40:35.733Z,77.26
2022-12-31T09:42:05.428Z,78.25
2022-12-31T09:43:28.783Z,77.45
2022-12-31T09:45:04.354Z,76.56
2022-12-31T09:46:43.508Z,76.95
2022-12-31T09:48:16.022Z,77.97
2022-12-31T09:49:35.739Z,77.49
2022-12-31T09:50:55.382Z,77.26
2022-12-31T09:52:34.271Z,76.40
2022-12-31T09:53:41.012Z,75.74
2022-12-31T09:55:21.897Z,75.53
2022-12-31T09:56:32.547Z,75.68
2022-12-31T09:57:40.418Z,75.72
2022-12-31T09:58:57.190Z,76.21
2022-12-31T10:00:33.613Z,75.53
2022-12-31T10:01:59.282Z,75.18
2022-12-31T10:03:31.992Z,75.75
2022-12-31T10:04:56.237Z,75.45
2022-12-31T10:06:24.272Z,75.09
2022-12-31T10:07:54.996Z,75.39
2022-12-31T10:09:39.162Z,74.70
2022-12-31T10:10:55.855Z,75.48
2022-12-31T10:12:24.958Z,75.26
2022-12-31T10:13:40.739Z,74.06
2022-12-31T10:15:00.754Z,74.22
2022-12-31T10:16:14.315Z,74.18
2022-12-31T10:17:41.689Z,74.37
2022-12-31T10:19:28.135Z,74.03
2022-12-31T10:21:08.761Z,73.58
2022-12-31T10:22:28.302Z,74.76
2022-12-31T10:24:20.751Z,74.48
2022-12-31T10:25:38.486Z,73.43
2022-12-31T10:26:59.941Z,73.35
2022-12-31T10:28:12.306Z,73.82
2022-12-31T10:29:38.340Z,73.79
2022-12-31T10:31:03.316Z,72.97
2022-12-31T10:32:04.708Z,71.82
2022-12-31T10:33:21.377Z,72.08
2022-12-31T10:34:31.496Z,71.24
2022-12-31T10:35:57.197Z,71.45
2022-12-31T10:37:09.164Z,73.56
2022-12-31T10:38:46.073Z,71.38
2022-12-31T10:40:01.709Z,71.83
2022-12-31T10:41:27.152Z,69.84
2022-12-31T10:42:34.341Z,70.80
2022-12-31T10:44:17.644Z,70.01
2022-12-31T10:45:33.571Z,69.55
2022-12-31T10:47:05.878Z,71.52
2022-12-31T10:48:26.020Z,70.98
2022-12-31T10:50:14.308Z,70.45
2022-12-31T10:51:54.279Z,70.20
2022-12-31T10:53:18.149Z,70.85
2022-12-31T10:55:01.408Z,71.39
2022-12-31T10:56:24.836Z,71.61
2022-12-31T10:58:01.874Z,72.95
2022-12-31T10:59:11.259Z,70.51
2022-12-31T11:00:17.635Z,72.94
2022-12-31T11:02:09.415Z,72.35
2022-12-31T11:03:37.197Z,70.66
2022-12-31T11:05:10.429Z,70.30
2022-12-31T11:06:32.003Z,70.64
2022-12-31T11:07:54.614Z,70.83
2022-12-31T11:09:20.044Z,69.70
2022-12-31T11:10:42.853Z,70.99
2022-12-31T11:12:04.718Z,69.35
2022-12-31T11:13:08.901Z,70.19
2022-12-31T11:14:51.927Z,70.22
2022-12-31T11:16:12.513Z,70.26
2022-12-31T11:17:30.985Z,70.12
2022-12-31T11:18:56.794Z,70.20
2022-12-31T11:20:10.597Z,69.99
2022-12-31T11:21:28.234Z,69.77
2022-12-31T11:23:08.140Z,70.79
2022-12-31T11:24:28.300Z,70.49
2022-12-31T11:25:43.755Z,71.42
2022-12-31T11:27:10.088Z,72.00
2022-12-31T11:28:34.980Z,70.80
2022-12-31T11:29:48.401Z,70.38
2022-12-31T11:31:12.409Z,70.67
2022-12-31T11:32:44.570Z,70.42
2022-12-31T11:34:24.706Z,71.85
2022-12-31T11:35:42.900Z,70.82
2022-12-31T11:37:18.024Z,71.93
2022-12-31T11:38:31.900Z,70.77
2022-12-31T11:39:49.251Z,72.61
2022-12-31T11:41:07.838Z,70.53
2022-12-31T11:42:26.845Z,70.70
2022-12-31T11:43:35.497Z,70.13
2022-12-31T11:45:12.622Z,71.37
2022-12-31T11:47:04.832Z,69.94
2022-12-31T11:48:43.318Z,69.65
2022-12-31T11:50:10.457Z,70.40
2022-12-31T11:51:50.823Z,69.09
2022-12-31T11:53:15.423Z,69.68
2022-12-31T11:55:12.497Z,70.25
2022-12-31T11:56:34.539Z,69.48
2022-12-31T11:57:38.412Z,70.49
2022-12-31T11:58:47.649Z,69.63
2022-12-31T11:59:56.880Z,69.60
2022-12-31T12:01:47.677Z,70.05
2022-12-31T12:02:56.505Z,68.37
2022-12-31T12:03:58.148Z,69.84
2022-12-31T12:05:11.507Z,69.80
2022-12-31T12:06:18.627Z,68.03
2022-12-31T12:07:20.847Z,68.73
2022-12-31T12:08:22.741Z,68.29
2022-12-31T12:09:28.999Z,68.91
2022-12-31T12:10:37.162Z,67.92
2022-12-31T12:11:39.951Z,69.32
2022-12-31T12:12:42.685Z,68.27
2022-12-31T12:13:44.356Z,67.99
2022-12-31T12:14:51.897Z,68.53
2022-12-31T12:15:58.083Z,68.09
2022-12-31T12:17:05.889Z,68.58
2022-12-31T12:18:13.954Z,68.25
2022-12-31T12:19:18.710Z,69.93
2022-12-31T12:20:35.435Z,69.29
2022-12-31T12:21:46.998Z,68.89
2022-12-31T12:22:54.740Z,68.54
2022-12-31T12:24:01.641Z,69.20
2022-12-31T12:25:07.494Z,69.26
2022-12-31T12:26:32.940Z,68.33
2022-12-31T12:27:36.040Z,68.01
2022-12-31T12:28:45.850Z,69.21
2022-12-31T12:29:50.547Z,68.95
2022-12-31T12:31:02.258Z,68.87
2022-12-31T12:32:04.071Z,68.27
2022-12-31T12:33:06.295Z,69.75
2022-12-31T12:34:27.214Z,70.20
2022-12-31T12:35:34.361Z,69.39
2022-12-31T12:36:46.803Z,68.97
2022-12-31T12:38:01.446Z,70.38
2022-12-31T12:39:05.422Z,69.66
2022-12-31T12:40:22.213Z,69.27
2022-12-31T12:41:26.340Z,68.27
2022-12-31T12:42:29.300Z,68.57
2022-12-31T12:43:35.835Z,69.54
2022-12-31T12:44:42.126Z,68.58
2022-12-31T12:45:52.088Z,68.46
2022-12-31T12:46:54.333Z,68.45
2022-12-31T12:47:57.679Z,69.23
2022-12-31T12:49:00.078Z,68.93
2022-12-31T12:50:03.065Z,69.33
2022-12-31T12:51:39.582Z,68.15
2022-12-31T12:52:47.038Z,67.46
2022-12-31T12:54:20.308Z,68.04
2022-12-31T12:55:49.087Z,68.21
2022-12-31T12:57:20.509Z,67.58
2022-12-31T12:59:06.482Z,67.52
2022-12-31T13:00:18.687Z,68.42
2022-12-31T13:01:26.080Z,68.21
2022-12-31T13:02:35.786Z,68.39
2022-12-31T13:04:32.591Z,69.25
2022-12-31T13:05:28.232Z,68.50
2022-12-31T13:07:02.214Z,67.67
2022-12-31T13:08:28.319Z,68.50
2022-12-31T13:09:59.095Z,69.07
2022-12-31T13:11:17.604Z,68.43
2022-12-31T13:12:56.787Z,67.89
2022-12-31T13:14:03.549Z,66.25
2022-12-31T13:15:18.714Z,68.08
2022-12-31T13:16:30.782Z,68.29
2022-12-31T13:17:41.133Z,68.39
2022-12-31T13:19:09.397Z,66.38
2022-12-31T13:20:35.269Z,68.47
2022-12-31T13:21:46.356Z,67.96
2022-12-31T13:23:01.093Z,66.28
2022-12-31T13:24:23.897Z,66.45
2022-12-31T13:25:46.939Z,66.90
2022-12-31T13:26:58.755Z,67.80
2022-12-31T13:28:06.283Z,66.42
2022-12-31T13:29:34.461Z,65.80
2022-12-31T13:31:06.301Z,67.15
2022-12-31T13:32:15.547Z,67.73
2022-12-31T13:33:24.367Z,67.57
2022-12-31T13:34:33.404Z,67.61
2022-12-31T13:35:44.639Z,67.20
2022-12-31T13:36:48.614Z,66.90
2022-12-31T13:37:56.823Z,67.67
2022-12-31T13:39:02.781Z,66.90
2022-12-31T13:40:38.085Z,66.85
2022-12-31T13:41:46.576Z,66.32
2022-12-31T13:43:12.384Z,66.50
2022-12-31T13:44:23.657Z,66.99
2022-12-31T13:45:31.018Z,66.66
2022-12-31T13:46:52.902Z,66.53
2022-12-31T13:48:00.688Z,67.26
2022-12-31T13:49:14.527Z,67.04
2022-12-31T13:50:36.010Z,67.20
2022-12-31T13:51:46.983Z,67.27
2022-12-31T13:52:54.351Z,66.27
2022-12-31T13:54:07.829Z,67.00
2022-12-31T13:55:27.528Z,67.25
2022-12-31T13:56:33.834Z,68.20
2022-12-31T13:57:35.756Z,68.41
2022-12-31T13:58:40.893Z,66.93
2022-12-31T13:59:51.830Z,69.09
2022-12-31T14:01:00.234Z,67.34
2022-12-31T14:02:30.455Z,69.02
2022-12-31T14:03:45.609Z,68.04
2022-12-31T14:04:51.704Z,66.85
2022-12-31T14:06:06.535Z,67.60
2022-12-31T14:07:20.721Z,67.83
2022-12-31T14:08:22.260Z,67.01
2022-12-31T14:09:26.261Z,67.21
2022-12-31T14:11:08.199Z,66.24
2022-12-31T14:12:15.744Z,67.21
2022-12-31T14:13:34.178Z,66.94
2022-12-31T14:15:01.419Z,66.34
2022-12-31T14:16:08.832Z,66.23
2022-12-31T14:17:19.790Z,66.51
2022-12-31T14:18:34.612Z,66.62
2022-12-31T14:19:40.989Z,67.67
2022-12-31T14:20:49.143Z,67.12
2022-12-31T14:21:56.781Z,67.31
2022-12-31T14:23:04.305Z,67.90
2022-12-31T14:24:23.130Z,67.65
2022-12-31T14:25:57.182Z,68.25
2022-12-31T14:27:03.645Z,67.49
2022-12-31T14:28:08.207Z,68.32
2022-12-31T14:29:13.909Z,67.73
2022-12-31T14:30:19.507Z,68.79
2022-12-31T14:31:55.084Z,68.84
2022-12-31T14:33:16.132Z,68.69
2022-12-31T14:34:42.931Z,68.41
2022-12-31T14:36:14.121Z,68.07
2022-12-31T14:37:46.264Z,69.10
2022-12-31T14:38:59.824Z,68.18
2022-12-31T14:40:26.262Z,68.08
2022-12-31T14:41:38.749Z,67.59
2022-12-31T14:42:55.798Z,68.15
2022-12-31T14:44:18.949Z,68.88
2022-12-31T14:45:48.826Z,68.69
2022-12-31T14:47:17.329Z,68.68
2022-12-31T14:48:34.080Z,69.55
2022-12-31T14:50:02.209Z,69.88
2022-12-31T14:51:05.312Z,70.01
2022-12-31T14:52:15.558Z,70.63
2022-12-31T14:53:28.564Z,70.26
2022-12-31T14:54:38.006Z,70.76
2022-12-31T14:55:40.955Z,71.58
2022-12-31T14:56:45.103Z,70.56
2022-12-31T14:59:29.419Z,72.24
2022-12-31T15:00:39.190Z,72.15
2022-12-31T15:01:45.445Z,72.53
2022-12-31T15:02:56.846Z,72.41
2022-12-31T15:03:58.637Z,72.61
2022-12-31T15:05:16.023Z,72.13
2022-12-31T15:06:23.374Z,72.78
2022-12-31T15:07:52.237Z,72.34
2022-12-31T15:09:19.831Z,72.51
2022-12-31T15:10:48.715Z,71.73
2022-12-31T15:11:56.219Z,70.93
2022-12-31T15:13:19.002Z,70.39